Weather at Frank Federer Memorial Airport

Public forecast

Using degrees Fahrenheit for public forecast. Weather courtesy of forecast.io.

Closest aviation weather report (METAR) to Frank Federer Memorial Airport

Closest report is Stuttgart Municipal Airport / Carl Humphrey Field, 25.9 nm (48.0 km) SW. Retrieved 2020/09/19 07:56 UTC (8 minutes ago):

KSGT 190756Z AUTO 03009KT 10SM CLR 16/12 A3015 RMK AO2 SLP211 T01610122

Closest aviation forecast (TAF) to Frank Federer Memorial Airport

Closest forecast is Little Rock Air Force Base, 48.0 nm (88.9 km) W. Retrieved 2020/09/19 07:09 UTC (55 minutes ago):

TAF TAF KLRF 190700Z 1907/2013 04006KT 9999 FEW200 WS020/04035KT QNH3016INS BECMG 1914/1915 03010G15KT 9999 FEW200 QNH3017INS BECMG 1922/1923 04009KT 9999 FEW200 QNH3013INS BECMG 2005/2006 05006KT 9999 FEW050 FEW200 QNH3014INS TX25/1920Z TN14/1911Z